createdAt,value
2019-06-07T00:00:41.370Z,2.90
2019-06-07T00:03:24.881Z,2.90
2019-06-07T00:05:47.015Z,2.80
2019-06-07T00:08:27.177Z,2.70
2019-06-07T00:10:54.558Z,2.83
2019-06-07T00:13:25.886Z,3.53
2019-06-07T00:15:58.500Z,3.17
2019-06-07T00:18:29.476Z,3.33
2019-06-07T00:21:00.850Z,3.20
2019-06-07T00:23:32.115Z,2.60
2019-06-07T00:26:03.376Z,2.70
2019-06-07T00:28:34.352Z,3.30
2019-06-07T00:31:05.795Z,3.03
2019-06-07T00:33:37.089Z,2.97
2019-06-07T00:36:09.983Z,3.23
2019-06-07T00:38:41.072Z,2.80
2019-06-07T00:41:24.274Z,3.20
2019-06-07T00:43:55.509Z,3.33
2019-06-07T00:46:26.752Z,2.87
2019-06-07T00:48:58.053Z,3.10
2019-06-07T00:51:49.204Z,2.80
2019-06-07T00:54:02.321Z,3.13
2019-06-07T00:56:33.601Z,2.87
2019-06-07T00:59:11.094Z,2.80
2019-06-07T01:01:43.404Z,3.23
2019-06-07T01:04:17.725Z,2.57
2019-06-07T01:06:47.786Z,2.97
2019-06-07T01:09:23.916Z,3.70
2019-06-07T01:11:55.291Z,3.57
2019-06-07T01:14:28.515Z,3.40
2019-06-07T01:17:22.245Z,3.57
2019-06-07T01:19:32.545Z,4.50
2019-06-07T01:22:03.483Z,3.87
2019-06-07T01:24:34.647Z,4.10
2019-06-07T01:27:06.039Z,3.70
2019-06-07T01:29:37.324Z,4.40
2019-06-07T01:32:08.648Z,4.83
2019-06-07T01:34:39.996Z,4.10
2019-06-07T01:37:11.272Z,4.07
2019-06-07T01:39:42.446Z,4.27
2019-06-07T01:42:13.664Z,4.50
2019-06-07T01:44:44.913Z,3.70
2019-06-07T01:47:17.847Z,3.97
2019-06-07T01:49:49.220Z,4.70
2019-06-07T01:52:23.584Z,4.43
2019-06-07T01:54:58.325Z,4.80
2019-06-07T01:57:38.288Z,4.63
2019-06-07T01:59:59.309Z,4.37
2019-06-07T02:02:33.010Z,5.10
2019-06-07T02:05:04.650Z,4.87
2019-06-07T02:07:35.687Z,4.27
2019-06-07T02:10:07.531Z,5.17
2019-06-07T02:12:43.160Z,4.53
2019-06-07T02:15:13.591Z,5.00
2019-06-07T02:17:44.925Z,5.60
2019-06-07T02:20:16.266Z,6.87
2019-06-07T02:22:47.444Z,5.70
2019-06-07T02:27:51.608Z,5.47
2019-06-07T02:30:40.564Z,5.30
2019-06-07T02:32:55.837Z,5.77
2019-06-07T02:35:34.763Z,5.07
2019-06-07T02:37:59.793Z,5.47
2019-06-07T02:40:36.391Z,4.80
2019-06-07T02:43:03.674Z,5.13
2019-06-07T02:45:42.171Z,5.40
2019-06-07T02:48:07.865Z,5.20
2019-06-07T02:50:39.045Z,5.30
2019-06-07T02:53:11.020Z,5.27
2019-06-07T02:56:32.964Z,5.00
2019-06-07T02:58:14.900Z,5.97
2019-06-07T03:01:07.012Z,5.50
2019-06-07T03:03:22.372Z,5.33
2019-06-07T03:05:53.249Z,5.50
2019-06-07T03:08:25.724Z,6.30
2019-06-07T03:10:58.195Z,5.20
2019-06-07T03:13:34.182Z,5.10
2019-06-07T03:16:06.156Z,5.37
2019-06-07T03:18:57.693Z,5.27
2019-06-07T03:21:29.485Z,5.00
2019-06-07T03:24:05.336Z,4.87
2019-06-07T03:27:30.552Z,4.93
2019-06-07T03:29:10.928Z,5.03
2019-06-07T03:31:47.505Z,5.57
2019-06-07T03:34:15.290Z,6.03
2019-06-07T03:36:46.536Z,5.47
2019-06-07T03:39:17.764Z,5.67
2019-06-07T03:42:05.232Z,6.10
2019-06-07T03:44:22.664Z,6.53
2019-06-07T03:46:53.844Z,5.40
2019-06-07T03:49:25.028Z,5.13
2019-06-07T03:51:56.448Z,5.73
2019-06-07T03:54:27.619Z,5.17
2019-06-07T03:56:59.181Z,5.07
2019-06-07T03:59:35.566Z,5.40
2019-06-07T04:02:03.240Z,4.90
2019-06-07T04:04:37.818Z,5.70
2019-06-07T04:07:06.775Z,6.80
2019-06-07T04:09:42.063Z,5.97
2019-06-07T04:12:10.655Z,7.33
2019-06-07T04:14:42.840Z,7.40
2019-06-07T04:17:14.803Z,7.40
2019-06-07T04:19:46.638Z,7.00
2019-06-07T04:22:18.214Z,8.10
2019-06-07T04:24:49.991Z,8.27
2019-06-07T04:27:21.205Z,8.27
2019-06-07T04:30:06.813Z,9.40
2019-06-07T04:32:26.276Z,8.33
2019-06-07T04:34:58.829Z,7.80
2019-06-07T04:37:31.143Z,8.40
2019-06-07T04:40:03.275Z,9.07
2019-06-07T04:42:41.750Z,10.37
2019-06-07T04:45:32.405Z,10.07
2019-06-07T04:47:44.472Z,12.73
2019-06-07T04:50:15.511Z,10.83
2019-06-07T04:52:46.820Z,10.70
2019-06-07T04:55:18.097Z,11.80
2019-06-07T04:57:49.531Z,10.80
2019-06-07T05:03:03.048Z,11.20
2019-06-07T05:05:37.443Z,11.87
2019-06-07T05:08:26.620Z,13.00
2019-06-07T05:10:43.894Z,13.37
2019-06-07T05:13:14.413Z,13.23
2019-06-07T05:15:45.918Z,14.73
2019-06-07T05:18:17.342Z,12.50
2019-06-07T05:20:48.507Z,10.87
2019-06-07T05:23:59.814Z,14.40
2019-06-07T05:25:53.597Z,13.47
2019-06-07T05:28:25.024Z,12.20
2019-06-07T05:31:05.762Z,12.90
2019-06-07T05:33:31.187Z,12.30
2019-06-07T05:36:03.012Z,12.90
2019-06-07T05:38:36.068Z,12.40
2019-06-07T05:41:21.672Z,12.13
2019-06-07T05:47:11.255Z,9.63
2019-06-07T05:49:46.315Z,11.83
2019-06-07T05:52:21.214Z,11.93
2019-06-07T05:54:53.069Z,11.57
2019-06-07T05:57:24.172Z,12.10
2019-06-07T05:59:55.159Z,11.60
2019-06-07T06:02:26.233Z,11.00
2019-06-07T06:04:57.512Z,11.13
2019-06-07T06:07:29.424Z,10.90
2019-06-07T06:10:00.616Z,10.77
2019-06-07T06:12:35.148Z,10.83
2019-06-07T06:15:16.734Z,10.93
2019-06-07T06:17:53.443Z,10.90
2019-06-07T06:20:23.278Z,10.07
2019-06-07T06:22:55.641Z,10.70
2019-06-07T06:25:33.145Z,10.00
2019-06-07T06:28:10.973Z,10.80
2019-06-07T06:30:38.260Z,10.17
2019-06-07T06:33:27.084Z,10.20
2019-06-07T06:35:45.133Z,9.80
2019-06-07T06:38:18.904Z,9.73
2019-06-07T06:41:05.259Z,10.33
2019-06-07T06:43:24.435Z,10.57
2019-06-07T06:45:55.692Z,10.57
2019-06-07T06:48:27.206Z,10.03
2019-06-07T06:51:01.348Z,9.77
2019-06-07T06:53:32.893Z,10.20
2019-06-07T06:56:04.205Z,10.50
2019-06-07T06:59:18.642Z,9.90
2019-06-07T07:01:08.384Z,9.20
2019-06-07T07:04:00.121Z,8.60
2019-06-07T07:06:25.761Z,8.30
2019-06-07T07:08:51.407Z,8.53
2019-06-07T07:11:26.916Z,8.13
2019-06-07T07:13:59.069Z,7.73
2019-06-07T07:16:30.075Z,6.70
2019-06-07T07:19:03.216Z,6.37
2019-06-07T07:21:38.690Z,6.33
2019-06-07T07:24:20.892Z,5.37
2019-06-07T07:26:46.773Z,5.70
2019-06-07T07:29:16.499Z,5.20
2019-06-07T07:31:50.830Z,5.37
2019-06-07T07:34:34.696Z,4.93
2019-06-07T07:36:59.797Z,5.07
2019-06-07T07:39:31.385Z,6.20
2019-06-07T07:42:20.390Z,5.60
2019-06-07T07:44:35.883Z,5.10
2019-06-07T07:47:08.261Z,4.70
2019-06-07T07:49:39.341Z,5.03
2019-06-07T07:52:10.607Z,4.80
2019-06-07T07:54:41.721Z,4.70
2019-06-07T07:57:13.265Z,4.90
2019-06-07T08:00:02.098Z,4.67
2019-06-07T08:02:22.077Z,4.83
2019-06-07T08:05:20.544Z,5.17
2019-06-07T08:07:28.780Z,5.03
2019-06-07T08:10:04.566Z,4.90
2019-06-07T08:12:55.930Z,5.13
2019-06-07T08:15:10.637Z,5.30
2019-06-07T08:17:41.862Z,4.73
2019-06-07T08:20:14.500Z,5.33
2019-06-07T08:22:45.673Z,5.20
2019-06-07T08:25:17.400Z,5.70
2019-06-07T08:27:49.498Z,5.43
2019-06-07T08:32:58.815Z,6.07
2019-06-07T08:38:26.523Z,5.53
2019-06-07T08:40:45.218Z,6.17
2019-06-07T08:43:20.604Z,6.50
2019-06-07T08:45:51.329Z,5.90
2019-06-07T08:48:27.797Z,6.53
2019-06-07T08:50:59.916Z,6.73
2019-06-07T08:53:28.234Z,6.43
2019-06-07T08:56:08.925Z,5.70
2019-06-07T08:58:32.299Z,6.23
2019-06-07T09:01:06.428Z,6.50
2019-06-07T09:03:35.911Z,7.07
2019-06-07T09:06:40.004Z,7.60
2019-06-07T09:08:40.108Z,6.97
2019-06-07T09:11:15.085Z,8.80
2019-06-07T09:13:45.999Z,7.23
2019-06-07T09:16:17.180Z,7.03
2019-06-07T09:18:48.104Z,7.07
2019-06-07T09:21:19.412Z,7.80
2019-06-07T09:23:50.853Z,7.27
2019-06-07T09:26:22.558Z,6.97
2019-06-07T09:28:56.207Z,7.23
2019-06-07T09:31:51.168Z,7.87
2019-06-07T09:34:10.291Z,7.80
2019-06-07T09:36:36.612Z,7.23
2019-06-07T09:39:12.257Z,7.53
2019-06-07T09:41:49.608Z,6.43
2019-06-07T09:44:24.884Z,6.93
2019-06-07T09:46:47.099Z,7.87
2019-06-07T09:49:30.566Z,8.47
2019-06-07T09:51:51.232Z,8.03
2019-06-07T09:55:03.994Z,6.90
2019-06-07T09:57:00.376Z,7.40
2019-06-07T09:59:29.673Z,7.50
2019-06-07T10:02:02.771Z,7.47
2019-06-07T10:04:35.334Z,7.50
2019-06-07T10:07:26.925Z,7.43
2019-06-07T10:10:09.975Z,8.20
2019-06-07T10:12:13.312Z,6.63
2019-06-07T10:14:45.314Z,6.53
2019-06-07T10:17:16.796Z,7.47
2019-06-07T10:19:47.860Z,6.93
2019-06-07T10:22:18.842Z,7.17
2019-06-07T10:24:49.883Z,7.37
2019-06-07T10:27:21.593Z,5.83
2019-06-07T10:29:58.161Z,5.90
2019-06-07T10:32:26.844Z,7.87
2019-06-07T10:34:58.489Z,6.60
2019-06-07T10:37:30.080Z,7.83
2019-06-07T10:40:02.915Z,7.00
2019-06-07T10:42:34.573Z,7.03
2019-06-07T10:45:18.674Z,6.30
2019-06-07T10:47:52.740Z,7.03
2019-06-07T10:50:26.983Z,6.07
2019-06-07T10:52:58.785Z,6.53
2019-06-07T10:55:30.049Z,6.07
2019-06-07T10:58:04.816Z,7.17
2019-06-07T11:00:37.617Z,6.73
2019-06-07T11:03:09.933Z,6.47
2019-06-07T11:05:42.914Z,6.43
2019-06-07T11:08:18.837Z,5.77
2019-06-07T11:11:14.367Z,6.67
2019-06-07T11:13:39.573Z,7.57
2019-06-07T11:16:15.509Z,6.97
2019-06-07T11:18:46.857Z,6.93
2019-06-07T11:21:22.621Z,6.73
2019-06-07T11:24:24.265Z,5.90
2019-06-07T11:27:19.470Z,5.20
2019-06-07T11:33:19.195Z,5.23
2019-06-07T11:36:11.019Z,4.70
2019-06-07T11:39:08.526Z,5.70
2019-06-07T11:41:41.478Z,5.53
2019-06-07T11:44:13.127Z,5.60
2019-06-07T11:46:50.654Z,5.00
2019-06-07T11:49:22.195Z,5.73
2019-06-07T11:52:01.285Z,5.97
2019-06-07T11:54:50.762Z,6.20
2019-06-07T11:57:23.115Z,5.07
2019-06-07T12:00:01.544Z,5.43
2019-06-07T12:02:33.415Z,6.20
2019-06-07T12:05:05.803Z,5.13
2019-06-07T12:07:41.535Z,5.07
2019-06-07T12:10:17.987Z,5.20
2019-06-07T12:12:51.205Z,4.93
2019-06-07T12:15:23.201Z,4.47
2019-06-07T12:18:05.145Z,5.03
2019-06-07T12:20:38.072Z,4.40
2019-06-07T12:23:09.998Z,5.20
2019-06-07T12:25:42.773Z,5.50
2019-06-07T12:28:14.619Z,6.47
2019-06-07T12:30:47.707Z,6.57
2019-06-07T12:33:19.715Z,5.70
2019-06-07T12:35:53.727Z,5.10
2019-06-07T12:38:25.153Z,5.10
2019-06-07T12:40:59.790Z,5.27
2019-06-07T12:43:31.592Z,4.97
2019-06-07T12:46:14.351Z,5.50
2019-06-07T12:48:44.522Z,4.67
2019-06-07T12:51:19.455Z,4.10
2019-06-07T12:53:52.429Z,4.00
2019-06-07T12:56:52.285Z,4.73
2019-06-07T12:59:24.213Z,5.40
2019-06-07T13:02:01.837Z,4.28
2019-06-07T13:04:29.785Z,4.53
2019-06-07T13:07:01.738Z,4.50
2019-06-07T13:09:36.030Z,5.27
2019-06-07T13:12:06.764Z,4.53
2019-06-07T13:14:40.313Z,5.42
2019-06-07T13:17:11.421Z,4.83
2019-06-07T13:19:43.114Z,5.10
2019-06-07T13:22:16.091Z,4.57
2019-06-07T13:24:49.381Z,4.77
2019-06-07T13:27:20.602Z,3.67
2019-06-07T13:29:53.828Z,4.03
2019-06-07T13:32:25.237Z,4.63
2019-06-07T13:35:03.097Z,4.62
2019-06-07T13:37:34.894Z,4.00
2019-06-07T13:40:07.034Z,3.55
2019-06-07T13:42:40.767Z,4.62
2019-06-07T13:45:13.978Z,4.95
2019-06-07T13:47:45.834Z,4.62
2019-06-07T13:50:19.485Z,4.58
2019-06-07T13:52:51.947Z,5.10
2019-06-07T13:55:25.885Z,4.67
2019-06-07T13:57:59.437Z,4.13
2019-06-07T14:00:33.565Z,4.47
2019-06-07T14:06:05.069Z,3.87
2019-06-07T14:08:37.365Z,3.77
2019-06-07T14:11:08.864Z,3.80
2019-06-07T14:13:50.982Z,3.90
2019-06-07T14:16:22.296Z,4.12
2019-06-07T14:18:53.450Z,3.80
2019-06-07T14:21:26.665Z,3.65
2019-06-07T14:23:57.695Z,3.45
2019-06-07T14:26:29.450Z,3.87
2019-06-07T14:29:00.887Z,3.70
2019-06-07T14:31:32.311Z,3.40
2019-06-07T14:34:03.636Z,3.52
2019-06-07T14:36:41.042Z,3.25
2019-06-07T14:39:12.423Z,3.17
2019-06-07T14:41:43.805Z,3.70
2019-06-07T14:44:15.153Z,3.70
2019-06-07T14:46:46.510Z,3.20
2019-06-07T14:49:19.024Z,3.60
2019-06-07T14:51:51.542Z,3.50
2019-06-07T14:54:23.008Z,3.37
2019-06-07T14:56:54.369Z,3.20
2019-06-07T14:59:26.244Z,3.23
2019-06-07T15:01:57.948Z,3.20
2019-06-07T15:04:29.039Z,3.30
2019-06-07T15:07:00.428Z,4.00
2019-06-07T15:09:35.223Z,3.43
2019-06-07T15:12:06.726Z,3.90
2019-06-07T15:14:37.800Z,3.80
2019-06-07T15:17:17.255Z,3.50
2019-06-07T15:19:48.326Z,3.37
2019-06-07T15:22:19.641Z,3.33
2019-06-07T15:24:50.725Z,3.70
2019-06-07T15:27:22.033Z,3.30
2019-06-07T15:29:53.386Z,3.57
2019-06-07T15:32:25.797Z,3.45
2019-06-07T15:35:00.351Z,3.30
2019-06-07T15:37:33.041Z,3.57
2019-06-07T15:40:05.692Z,3.40
2019-06-07T15:42:47.527Z,3.27
2019-06-07T15:45:10.556Z,3.23
2019-06-07T15:47:41.917Z,3.10
2019-06-07T15:50:15.280Z,2.20
2019-06-07T15:52:46.392Z,2.03
2019-06-07T15:55:18.371Z,1.83
2019-06-07T15:57:51.991Z,2.00
2019-06-07T16:00:27.770Z,1.80
2019-06-07T16:02:59.086Z,1.73
2019-06-07T16:05:34.377Z,1.70
2019-06-07T16:08:05.960Z,1.60
2019-06-07T16:10:38.730Z,1.80
2019-06-07T16:13:10.295Z,1.77
2019-06-07T16:15:43.362Z,1.80
2019-06-07T16:18:14.709Z,1.87
2019-06-07T16:20:47.122Z,1.80
2019-06-07T16:23:19.984Z,2.00
2019-06-07T16:25:54.232Z,1.80
2019-06-07T16:28:30.835Z,1.90
2019-06-07T16:31:09.684Z,2.13
2019-06-07T16:33:43.316Z,1.87
2019-06-07T16:36:17.521Z,2.10
2019-06-07T16:38:49.177Z,1.70
2019-06-07T16:41:21.105Z,2.40
2019-06-07T16:43:58.954Z,2.60
2019-06-07T16:46:42.994Z,2.10
2019-06-07T16:49:16.029Z,2.30
2019-06-07T16:51:47.740Z,1.77
2019-06-07T16:54:20.641Z,1.80
2019-06-07T16:56:55.089Z,2.07
2019-06-07T16:59:48.939Z,2.20
2019-06-07T17:02:18.414Z,2.50
2019-06-07T17:04:49.698Z,2.33
2019-06-07T17:07:20.720Z,2.17
2019-06-07T17:09:51.669Z,1.80
2019-06-07T17:12:26.823Z,2.00
2019-06-07T17:15:00.716Z,1.90
2019-06-07T17:17:45.323Z,1.90
2019-06-07T17:20:23.933Z,1.83
2019-06-07T17:22:57.087Z,1.50
2019-06-07T17:25:28.596Z,1.57
2019-06-07T17:28:00.581Z,1.47
2019-06-07T17:30:32.202Z,1.23
2019-06-07T17:33:04.283Z,1.27
2019-06-07T17:35:36.648Z,1.00
2019-06-07T17:38:12.339Z,1.10
2019-06-07T17:40:56.775Z,1.10
2019-06-07T17:43:28.434Z,0.90
2019-06-07T17:46:01.416Z,0.83
2019-06-07T17:48:34.282Z,0.87
2019-06-07T17:51:05.696Z,0.73
2019-06-07T17:53:37.458Z,0.80
2019-06-07T17:56:12.674Z,0.60
2019-06-07T17:58:44.314Z,1.07
2019-06-07T18:01:17.414Z,0.67
2019-06-07T18:03:51.255Z,0.70
2019-06-07T18:06:26.134Z,0.80
2019-06-07T18:09:19.704Z,0.90
2019-06-07T18:12:20.730Z,0.83
2019-06-07T18:17:58.351Z,0.70
2019-06-07T18:20:29.873Z,0.80
2019-06-07T18:23:01.806Z,0.63
2019-06-07T18:25:33.455Z,0.97
2019-06-07T18:28:04.946Z,0.70
2019-06-07T18:30:39.407Z,0.60
2019-06-07T18:33:11.302Z,0.90
2019-06-07T18:35:42.970Z,0.70
2019-06-07T18:38:14.341Z,0.60
2019-06-07T18:40:47.132Z,0.63
2019-06-07T18:43:20.623Z,0.70
2019-06-07T18:45:55.850Z,1.27
2019-06-07T18:48:28.614Z,0.73
2019-06-07T18:51:00.806Z,0.80
2019-06-07T18:53:36.023Z,0.70
2019-06-07T18:56:07.330Z,0.70
2019-06-07T18:58:39.283Z,0.80
2019-06-07T19:01:12.254Z,0.83
2019-06-07T19:03:47.149Z,0.53
2019-06-07T19:06:19.069Z,0.60
2019-06-07T19:08:55.535Z,0.60
2019-06-07T19:11:29.996Z,0.40
2019-06-07T19:14:05.219Z,0.33
2019-06-07T19:16:36.956Z,0.80
2019-06-07T19:19:12.968Z,0.60
2019-06-07T19:21:44.623Z,0.30
2019-06-07T19:24:16.381Z,0.60
2019-06-07T19:26:52.509Z,0.60
2019-06-07T19:29:25.279Z,0.70
2019-06-07T19:31:57.002Z,0.70
2019-06-07T19:34:28.746Z,0.53
2019-06-07T19:37:05.747Z,0.50
2019-06-07T19:39:38.698Z,0.67
2019-06-07T19:42:10.890Z,0.60
2019-06-07T19:44:53.121Z,0.50
2019-06-07T19:47:17.888Z,0.50
2019-06-07T19:49:49.839Z,0.80
2019-06-07T19:52:22.168Z,0.40
2019-06-07T19:54:55.669Z,0.60
2019-06-07T19:57:26.728Z,0.47
2019-06-07T19:59:57.755Z,0.60
2019-06-07T20:02:29.988Z,0.50
2019-06-07T20:05:04.762Z,0.50
2019-06-07T20:07:34.831Z,0.40
2019-06-07T20:10:18.410Z,0.60
2019-06-07T20:12:54.460Z,0.60
2019-06-07T20:15:29.519Z,0.50
2019-06-07T20:18:01.305Z,0.63
2019-06-07T20:20:32.653Z,0.50
2019-06-07T20:23:05.244Z,0.40
2019-06-07T20:25:36.662Z,0.50
2019-06-07T20:28:09.334Z,0.40
2019-06-07T20:30:41.374Z,0.50
2019-06-07T20:33:12.737Z,0.37
2019-06-07T20:35:43.945Z,0.60
2019-06-07T20:38:16.706Z,0.37
2019-06-07T20:41:01.063Z,0.40
2019-06-07T20:43:32.176Z,0.50
2019-06-07T20:46:04.994Z,0.63
2019-06-07T20:48:35.825Z,0.50
2019-06-07T20:51:08.532Z,0.70
2019-06-07T20:53:39.634Z,0.50
2019-06-07T20:56:10.740Z,0.70
2019-06-07T20:58:41.905Z,0.63
2019-06-07T21:01:13.066Z,0.53
2019-06-07T21:03:44.966Z,0.50
2019-06-07T21:06:15.881Z,0.57
2019-06-07T21:08:47.148Z,0.70
2019-06-07T21:11:18.212Z,0.60
2019-06-07T21:13:49.383Z,0.60
2019-06-07T21:16:26.186Z,0.60
2019-06-07T21:18:57.622Z,0.70
2019-06-07T21:21:29.144Z,0.53
2019-06-07T21:24:00.533Z,0.60
2019-06-07T21:26:31.888Z,0.67
2019-06-07T21:29:04.839Z,0.90
2019-06-07T21:31:36.108Z,0.73
2019-06-07T21:34:10.426Z,0.60
2019-06-07T21:36:39.907Z,0.77
2019-06-07T21:39:12.374Z,0.60
2019-06-07T21:41:43.500Z,0.60
2019-06-07T21:44:14.713Z,0.80
2019-06-07T21:46:45.911Z,0.80
2019-06-07T21:49:17.353Z,0.80
2019-06-07T21:51:48.543Z,0.57
2019-06-07T21:54:19.719Z,0.53
2019-06-07T21:56:51.158Z,0.60
2019-06-07T21:59:22.901Z,0.57
2019-06-07T22:01:54.152Z,0.80
2019-06-07T22:04:25.452Z,0.47
2019-06-07T22:06:56.784Z,0.50
2019-06-07T22:09:27.959Z,0.57
2019-06-07T22:11:59.132Z,0.70
2019-06-07T22:14:30.544Z,0.90
2019-06-07T22:17:01.486Z,0.97
2019-06-07T22:19:34.575Z,1.30
2019-06-07T22:22:07.148Z,0.70
2019-06-07T22:24:38.267Z,0.77
2019-06-07T22:27:11.285Z,0.70
2019-06-07T22:29:42.711Z,0.80
2019-06-07T22:32:14.949Z,0.60
2019-06-07T22:34:46.305Z,0.60
2019-06-07T22:37:21.213Z,0.60
2019-06-07T22:39:50.518Z,0.70
2019-06-07T22:42:21.615Z,0.60
2019-06-07T22:44:53.040Z,0.80
2019-06-07T22:47:24.428Z,1.03
2019-06-07T22:49:55.863Z,0.60
2019-06-07T22:52:27.041Z,0.70
2019-06-07T22:54:58.481Z,0.70
2019-06-07T22:57:31.077Z,1.00
2019-06-07T23:00:08.564Z,0.87
2019-06-07T23:02:35.189Z,0.57
2019-06-07T23:05:08.424Z,0.70
2019-06-07T23:07:40.069Z,0.63
2019-06-07T23:10:11.394Z,0.90
2019-06-07T23:12:42.853Z,0.90
2019-06-07T23:15:15.425Z,0.70
2019-06-07T23:17:46.538Z,0.50
2019-06-07T23:20:18.292Z,0.80
2019-06-07T23:22:49.485Z,0.60
2019-06-07T23:25:23.924Z,1.17
2019-06-07T23:27:53.507Z,0.50
2019-06-07T23:30:24.675Z,0.60
2019-06-07T23:32:56.012Z,0.77
2019-06-07T23:35:27.178Z,0.70
2019-06-07T23:37:58.140Z,0.80
2019-06-07T23:40:30.056Z,1.00
2019-06-07T23:43:01.723Z,0.60
2019-06-07T23:45:32.641Z,0.70
2019-06-07T23:48:03.878Z,0.60
2019-06-07T23:50:36.259Z,0.67
2019-06-07T23:53:07.439Z,1.13
2019-06-07T23:55:38.859Z,0.70
2019-06-07T23:58:10.069Z,0.43
